Time;durP1;ratioP1;P1;durP2;ratioP2;P2;SDS_P1;SDS_P2;PMS_P1;PMS_P2;Temp;Humidity;BMP_temperature;BMP_pressure;BME280_temperature;BME280_humidity;BME280_pressure;Samples;Min_cycle;Max_cycle;Signal;HPM_P1;HPM_P2
2024/03/15 00:00:41;;;;;;;3.00;2.60;;;9.40;99.90;;;;;;5078918;28;20388;-81
2024/03/15 00:03:07;;;;;;;2.40;2.20;;;9.40;99.90;;;;;;5077350;28;20951;-82
2024/03/15 00:05:32;;;;;;;3.07;2.20;;;9.40;99.90;;;;;;5074539;28;20497;-81
2024/03/15 00:07:58;;;;;;;3.03;2.40;;;9.30;99.90;;;;;;5079785;28;20375;-80
2024/03/15 00:10:23;;;;;;;3.10;2.22;;;9.40;99.90;;;;;;5078213;28;20399;-81
2024/03/15 00:12:52;;;;;;;5.60;2.07;;;9.30;99.90;;;;;;5078938;28;20465;-82
2024/03/15 00:15:18;;;;;;;2.80;2.40;;;9.40;99.90;;;;;;5079602;28;20447;-82
2024/03/15 00:17:44;;;;;;;2.40;2.00;;;9.40;99.90;;;;;;5081109;28;20384;-82
2024/03/15 00:20:11;;;;;;;2.45;1.90;;;9.40;99.90;;;;;;5088662;28;20386;-83
2024/03/15 00:22:37;;;;;;;2.50;2.30;;;9.50;99.90;;;;;;5079726;28;20387;-83
2024/03/15 00:25:03;;;;;;;2.60;2.40;;;9.60;99.90;;;;;;5074631;28;20417;-82
2024/03/15 00:27:28;;;;;;;2.60;2.22;;;9.60;99.90;;;;;;5084761;28;20375;-82
2024/03/15 00:29:54;;;;;;;2.20;2.00;;;9.50;99.90;;;;;;5068242;28;20468;-82
2024/03/15 00:32:19;;;;;;;2.30;2.10;;;9.50;99.90;;;;;;5083875;28;20429;-82
2024/03/15 00:34:45;;;;;;;2.30;1.90;;;9.50;99.90;;;;;;5082260;28;20927;-82
2024/03/15 00:37:10;;;;;;;3.90;2.20;;;9.60;99.90;;;;;;5079055;28;20402;-82
2024/03/15 00:39:36;;;;;;;2.70;2.13;;;9.60;99.90;;;;;;5074601;28;20380;-82
2024/03/15 00:42:02;;;;;;;3.20;2.10;;;9.70;99.90;;;;;;5078318;28;20747;-82
2024/03/15 00:44:28;;;;;;;2.35;1.75;;;9.70;99.90;;;;;;5077916;28;20396;-83
2024/03/15 00:46:54;;;;;;;3.10;1.70;;;9.80;99.90;;;;;;5079329;28;20537;-82
2024/03/15 00:49:20;;;;;;;2.80;2.20;;;9.80;99.90;;;;;;5081709;28;20384;-83
2024/03/15 00:51:46;;;;;;;2.20;2.00;;;10.00;99.90;;;;;;5080772;28;20391;-82
2024/03/15 00:54:12;;;;;;;2.17;1.70;;;10.20;99.90;;;;;;5080175;28;20425;-83
2024/03/15 00:56:38;;;;;;;3.20;1.90;;;10.20;99.90;;;;;;5075320;28;20463;-82
2024/03/15 00:59:03;;;;;;;4.18;1.73;;;10.20;99.90;;;;;;5079278;28;20419;-82
2024/03/15 01:01:29;;;;;;;1.75;1.65;;;10.30;99.90;;;;;;5078566;28;20887;-82
2024/03/15 01:03:54;;;;;;;2.07;1.50;;;10.30;99.90;;;;;;5078041;28;20380;-82
2024/03/15 01:06:20;;;;;;;1.50;1.30;;;11.00;99.90;;;;;;5076788;28;20395;-82
2024/03/15 01:08:45;;;;;;;4.07;1.27;;;11.70;99.90;;;;;;5076734;28;20383;-82
2024/03/15 01:11:11;;;;;;;1.25;1.15;;;12.60;99.90;;;;;;5077672;28;20411;-82
2024/03/15 01:13:36;;;;;;;1.40;1.30;;;12.50;99.90;;;;;;5077175;28;20441;-82
2024/03/15 01:16:02;;;;;;;1.40;1.20;;;12.60;99.90;;;;;;5082871;28;20387;-82
2024/03/15 01:18:28;;;;;;;1.65;1.38;;;12.50;99.90;;;;;;5084562;28;20478;-82
2024/03/15 01:20:53;;;;;;;2.35;1.10;;;12.40;99.90;;;;;;5081436;28;20388;-83
2024/03/15 01:23:19;;;;;;;2.60;1.30;;;12.50;99.90;;;;;;5079129;28;20467;-83
2024/03/15 01:25:45;;;;;;;1.23;1.00;;;12.90;99.90;;;;;;5080049;28;20435;-82
2024/03/15 01:28:11;;;;;;;2.20;1.17;;;13.30;99.90;;;;;;5086529;28;20445;-83
2024/03/15 01:30:37;;;;;;;1.35;1.20;;;13.60;99.90;;;;;;5076473;28;20381;-82
2024/03/15 01:33:05;;;;;;;1.55;1.33;;;14.10;99.90;;;;;;5083297;28;20411;-82
2024/03/15 01:35:34;;;;;;;1.33;1.07;;;14.40;99.90;;;;;;5088436;28;20498;-83
2024/03/15 01:38:00;;;;;;;1.50;1.20;;;14.20;99.90;;;;;;5086708;28;20500;-83
2024/03/15 01:40:26;;;;;;;2.00;1.02;;;14.20;99.90;;;;;;5078598;28;20478;-83
2024/03/15 01:42:52;;;;;;;1.58;0.98;;;14.50;99.90;;;;;;5077539;28;20759;-83
2024/03/15 01:45:18;;;;;;;1.42;1.10;;;14.50;99.90;;;;;;5072861;28;20386;-83
2024/03/15 01:47:44;;;;;;;1.70;1.40;;;15.70;99.90;;;;;;5077794;28;20474;-83
2024/03/15 01:50:10;;;;;;;2.72;1.40;;;14.70;99.90;;;;;;5095725;28;20375;-83
2024/03/15 01:52:36;;;;;;;2.05;1.30;;;14.70;99.90;;;;;;5098471;28;20407;-83
2024/03/15 01:55:03;;;;;;;2.00;1.37;;;14.40;99.90;;;;;;5097609;28;20379;-83
2024/03/15 01:57:28;;;;;;;1.80;1.20;;;14.30;99.90;;;;;;5076417;28;21008;-82
2024/03/15 01:59:54;;;;;;;1.83;1.10;;;14.20;99.90;;;;;;5072630;28;20401;-82
2024/03/15 02:02:20;;;;;;;1.33;1.23;;;14.20;99.90;;;;;;5070630;28;20451;-83
2024/03/15 02:04:54;;;;;;;1.50;1.40;;;14.10;99.90;;;;;;5071056;28;20883;-83
2024/03/15 02:07:21;;;;;;;1.30;1.20;;;14.00;99.90;;;;;;5076614;28;20399;-83
2024/03/15 02:09:46;;;;;;;1.42;1.33;;;13.90;99.90;;;;;;5078656;28;20383;-83
2024/03/15 02:12:12;;;;;;;2.00;1.30;;;13.90;99.90;;;;;;5076962;28;20543;-82
2024/03/15 02:14:37;;;;;;;2.13;1.50;;;14.00;99.90;;;;;;5078900;28;20380;-83
2024/03/15 02:17:03;;;;;;;2.07;1.17;;;14.00;99.90;;;;;;5077294;28;20408;-82
2024/03/15 02:19:28;;;;;;;2.30;1.40;;;14.00;99.90;;;;;;5073530;28;20384;-82
2024/03/15 02:21:54;;;;;;;1.55;1.45;;;14.20;99.90;;;;;;5072309;28;20398;-82
2024/03/15 02:24:21;;;;;;;1.50;1.10;;;14.30;99.90;;;;;;5078776;28;20435;-82
2024/03/15 02:26:47;;;;;;;1.60;1.30;;;14.40;99.90;;;;;;5076947;28;20400;-81
2024/03/15 02:29:12;;;;;;;1.70;1.60;;;14.60;99.90;;;;;;5076598;28;20388;-81
2024/03/15 02:31:38;;;;;;;1.70;1.20;;;14.70;99.90;;;;;;5073843;28;20393;-82
2024/03/15 02:34:04;;;;;;;1.90;1.30;;;14.60;99.90;;;;;;5079800;28;20472;-81
2024/03/15 02:36:30;;;;;;;2.07;1.23;;;14.80;99.90;;;;;;5080734;28;20445;-81
2024/03/15 02:38:56;;;;;;;2.10;1.40;;;14.70;99.90;;;;;;5074522;28;20759;-81
2024/03/15 02:41:22;;;;;;;2.20;1.20;;;14.60;99.90;;;;;;5076581;28;20410;-81
2024/03/15 02:43:48;;;;;;;1.20;1.00;;;14.50;99.90;;;;;;5075744;28;20457;-81
2024/03/15 02:46:15;;;;;;;1.33;1.20;;;14.30;99.90;;;;;;5074944;28;20871;-81
2024/03/15 02:48:41;;;;;;;2.00;1.30;;;14.40;99.90;;;;;;5077047;28;20384;-80
2024/03/15 02:51:07;;;;;;;1.30;1.20;;;14.30;99.90;;;;;;5077671;28;20445;-80
2024/03/15 02:53:33;;;;;;;1.77;1.40;;;14.30;99.90;;;;;;5072207;28;20410;-80
2024/03/15 02:56:00;;;;;;;3.40;1.40;;;14.40;99.90;;;;;;5072840;28;20435;-79
2024/03/15 02:58:26;;;;;;;2.08;1.48;;;14.40;99.90;;;;;;5074562;28;20460;-81
2024/03/15 03:00:52;;;;;;;2.30;1.27;;;14.30;99.90;;;;;;5075434;28;20457;-80
2024/03/15 03:03:17;;;;;;;2.20;1.40;;;14.40;99.90;;;;;;5072885;28;20395;-81
2024/03/15 03:05:43;;;;;;;3.00;1.60;;;14.40;99.90;;;;;;5074458;28;20390;-80
2024/03/15 03:08:09;;;;;;;2.00;1.40;;;14.40;99.90;;;;;;5073621;28;20392;-80
2024/03/15 03:10:34;;;;;;;3.27;1.93;;;14.40;99.90;;;;;;5071454;28;21256;-81
2024/03/15 03:13:00;;;;;;;3.30;1.65;;;14.30;99.90;;;;;;5072573;28;20414;-81
2024/03/15 03:15:29;;;;;;;3.50;1.60;;;14.40;99.90;;;;;;5073310;28;20388;-81
2024/03/15 03:17:56;;;;;;;3.75;1.40;;;14.30;99.90;;;;;;5068608;28;20394;-81
2024/03/15 03:20:23;;;;;;;2.15;1.58;;;14.20;99.90;;;;;;5074616;28;20391;-81
2024/03/15 03:22:51;;;;;;;2.05;1.70;;;14.20;99.90;;;;;;5072592;28;20396;-79
2024/03/15 03:25:17;;;;;;;2.30;1.50;;;14.50;99.90;;;;;;5072985;28;20403;-81
2024/03/15 03:27:43;;;;;;;2.42;1.65;;;14.50;99.90;;;;;;5072357;28;20417;-80
2024/03/15 03:30:09;;;;;;;2.40;1.70;;;14.50;99.90;;;;;;5074754;28;20391;-81
2024/03/15 03:32:35;;;;;;;1.90;1.70;;;14.50;99.90;;;;;;5073982;28;20408;-81
2024/03/15 03:35:04;;;;;;;1.80;1.45;;;14.50;99.90;;;;;;5072198;28;20899;-82
2024/03/15 03:37:33;;;;;;;1.92;1.67;;;14.70;99.90;;;;;;5072508;28;20864;-80
2024/03/15 03:39:58;;;;;;;1.90;1.40;;;14.60;99.90;;;;;;5074100;28;20384;-81
2024/03/15 03:42:28;;;;;;;2.72;1.65;;;14.40;99.90;;;;;;5072794;28;20383;-81
2024/03/15 03:44:54;;;;;;;2.70;1.80;;;14.50;99.90;;;;;;5069351;28;20386;-81
2024/03/15 03:47:20;;;;;;;2.40;1.30;;;14.50;99.90;;;;;;5073172;28;20415;-80
2024/03/15 03:49:47;;;;;;;2.08;1.60;;;14.60;99.90;;;;;;5073394;28;20471;-81
2024/03/15 03:52:13;;;;;;;1.95;1.60;;;14.60;99.90;;;;;;5071465;28;20396;-80
2024/03/15 03:54:39;;;;;;;3.60;1.83;;;14.50;99.90;;;;;;5071613;28;20380;-81
2024/03/15 03:57:05;;;;;;;2.30;1.60;;;14.50;99.90;;;;;;5073313;28;20513;-81
2024/03/15 03:59:30;;;;;;;1.70;1.33;;;14.50;99.90;;;;;;5076473;28;20403;-81
2024/03/15 04:01:56;;;;;;;2.53;1.70;;;14.50;99.90;;;;;;5093206;28;20402;-79
2024/03/15 04:04:21;;;;;;;2.87;1.80;;;14.60;99.90;;;;;;5096941;28;20392;-78
2024/03/15 04:06:49;;;;;;;2.30;1.83;;;14.50;99.90;;;;;;5091214;28;21159;-80
2024/03/15 04:09:16;;;;;;;2.33;2.13;;;14.40;99.90;;;;;;5067136;28;20400;-79
2024/03/15 04:11:42;;;;;;;3.10;1.70;;;14.40;99.90;;;;;;5073625;28;20402;-79
2024/03/15 04:14:08;;;;;;;2.67;1.90;;;14.30;99.90;;;;;;5072780;28;20899;-80
2024/03/15 04:16:34;;;;;;;2.40;1.80;;;14.40;99.90;;;;;;5066350;28;20491;-81
2024/03/15 04:18:59;;;;;;;1.67;1.50;;;14.30;99.90;;;;;;5076209;28;20694;-80
2024/03/15 04:21:25;;;;;;;2.70;1.65;;;14.40;99.90;;;;;;5076521;28;20388;-79
2024/03/15 04:23:53;;;;;;;2.10;1.80;;;14.50;99.90;;;;;;5077472;28;20701;-80
2024/03/15 04:26:21;;;;;;;2.80;2.00;;;14.50;99.90;;;;;;5072653;28;20398;-81
2024/03/15 04:28:48;;;;;;;2.47;1.80;;;14.40;99.90;;;;;;5069229;28;20462;-80
2024/03/15 04:31:16;;;;;;;1.60;1.50;;;14.40;99.90;;;;;;5072596;28;20415;-79
2024/03/15 04:33:42;;;;;;;2.15;1.67;;;14.80;99.90;;;;;;5073455;28;20408;-82
2024/03/15 04:36:07;;;;;;;3.60;1.80;;;14.50;99.90;;;;;;5067135;28;20936;-80
2024/03/15 04:38:33;;;;;;;2.38;1.90;;;13.90;99.90;;;;;;5073113;28;20376;-79
2024/03/15 04:41:09;;;;;;;3.15;1.80;;;14.30;99.90;;;;;;5076981;28;20376;-79
2024/03/15 04:43:37;;;;;;;2.60;1.70;;;14.30;99.90;;;;;;5081665;28;20395;-79
2024/03/15 04:46:03;;;;;;;2.22;1.75;;;14.40;99.90;;;;;;5079803;28;20386;-80
2024/03/15 04:48:30;;;;;;;3.10;2.00;;;14.50;99.90;;;;;;5079631;28;20375;-79
2024/03/15 04:50:55;;;;;;;1.90;1.50;;;14.50;99.90;;;;;;5077628;28;20423;-81
2024/03/15 04:53:21;;;;;;;2.42;1.90;;;14.50;99.90;;;;;;5073180;28;20403;-81
2024/03/15 04:55:47;;;;;;;3.10;1.70;;;14.50;99.90;;;;;;5078437;28;20803;-80
2024/03/15 04:58:12;;;;;;;11.03;2.07;;;14.90;99.90;;;;;;5077459;28;20388;-81
2024/03/15 05:00:38;;;;;;;3.73;2.07;;;14.50;99.90;;;;;;5079559;28;20847;-81
2024/03/15 05:03:06;;;;;;;3.83;1.90;;;14.40;99.90;;;;;;5076934;28;20388;-81
2024/03/15 05:05:32;;;;;;;3.30;1.87;;;14.10;99.90;;;;;;5076955;28;20384;-80
2024/03/15 05:07:57;;;;;;;3.90;2.37;;;14.50;99.90;;;;;;5078107;28;20934;-80
2024/03/15 05:10:23;;;;;;;2.95;2.17;;;14.40;99.90;;;;;;5073534;28;20392;-80
2024/03/15 05:12:50;;;;;;;4.10;2.03;;;14.50;99.90;;;;;;5078541;28;20403;-80
2024/03/15 05:15:15;;;;;;;4.27;1.87;;;14.40;99.90;;;;;;5077099;28;20418;-81
2024/03/15 05:17:42;;;;;;;2.30;1.77;;;14.40;99.90;;;;;;5077617;28;20384;-81
2024/03/15 05:20:09;;;;;;;2.72;2.00;;;15.20;99.90;;;;;;5069008;28;20405;-80
2024/03/15 05:22:35;;;;;;;2.92;2.00;;;14.40;99.90;;;;;;5076163;28;20398;-79
2024/03/15 05:25:02;;;;;;;2.10;1.80;;;14.30;99.90;;;;;;5078123;28;20384;-81
2024/03/15 05:27:27;;;;;;;2.95;2.08;;;14.30;99.90;;;;;;5071663;28;20501;-79
2024/03/15 05:29:54;;;;;;;4.45;2.17;;;14.30;99.90;;;;;;5077515;28;20409;-81
2024/03/15 05:32:19;;;;;;;5.75;2.60;;;14.30;99.90;;;;;;5075298;28;20415;-80
2024/03/15 05:34:46;;;;;;;2.70;2.00;;;14.20;99.90;;;;;;5078227;28;20503;-81
2024/03/15 05:37:12;;;;;;;2.45;1.90;;;14.20;99.90;;;;;;5068310;28;20381;-81
2024/03/15 05:39:37;;;;;;;4.30;2.00;;;14.20;99.90;;;;;;5076631;28;20388;-79
2024/03/15 05:42:03;;;;;;;3.90;2.10;;;14.50;99.90;;;;;;5075275;28;20391;-81
2024/03/15 05:44:29;;;;;;;2.50;1.95;;;14.20;99.90;;;;;;5074131;28;20438;-79
2024/03/15 05:46:58;;;;;;;2.87;2.20;;;14.10;99.90;;;;;;5075188;28;20395;-78
2024/03/15 05:49:24;;;;;;;2.40;1.90;;;14.10;99.90;;;;;;5085082;28;20670;-81
2024/03/15 05:51:49;;;;;;;2.40;1.80;;;14.10;99.90;;;;;;5079537;28;20470;-81
2024/03/15 05:54:15;;;;;;;4.00;2.40;;;14.10;99.90;;;;;;5077292;28;20430;-81
2024/03/15 05:56:40;;;;;;;3.27;2.10;;;14.00;99.90;;;;;;5076979;28;20440;-80
2024/03/15 05:59:07;;;;;;;1.80;1.60;;;14.00;99.90;;;;;;5078631;28;20379;-81
2024/03/15 06:01:32;;;;;;;4.10;1.98;;;13.80;99.90;;;;;;5073020;28;20887;-77
2024/03/15 06:03:58;;;;;;;2.40;1.95;;;13.90;99.90;;;;;;5076584;28;20388;-80
2024/03/15 06:06:25;;;;;;;4.05;2.08;;;13.70;99.90;;;;;;5081842;28;20368;-79
2024/03/15 06:08:51;;;;;;;2.22;1.90;;;13.80;99.90;;;;;;5085410;28;20433;-80
2024/03/15 06:11:16;;;;;;;2.95;2.03;;;13.70;99.90;;;;;;5076261;28;20387;-80
2024/03/15 06:13:42;;;;;;;2.80;2.03;;;13.70;99.90;;;;;;5080985;28;20779;-79
2024/03/15 06:16:10;;;;;;;3.27;2.27;;;13.70;99.90;;;;;;5092782;28;20382;-81
2024/03/15 06:18:37;;;;;;;3.45;2.30;;;13.70;99.90;;;;;;5095601;28;20385;-80
2024/03/15 06:21:03;;;;;;;2.15;1.90;;;13.70;99.90;;;;;;5097211;28;20904;-80
2024/03/15 06:23:28;;;;;;;2.65;2.20;;;13.70;99.90;;;;;;5095706;28;20386;-80
2024/03/15 06:25:54;;;;;;;3.60;2.10;;;13.70;99.90;;;;;;5078297;28;20375;-81
2024/03/15 06:28:19;;;;;;;3.47;2.30;;;13.70;99.90;;;;;;5075901;28;20993;-81
2024/03/15 06:30:46;;;;;;;2.65;2.40;;;13.70;99.90;;;;;;5075094;28;20384;-80
2024/03/15 06:33:13;;;;;;;3.75;2.10;;;13.70;99.90;;;;;;5075799;28;20466;-81
2024/03/15 06:35:39;;;;;;;2.85;2.20;;;13.60;99.90;;;;;;5095643;28;20872;-81
2024/03/15 06:38:09;;;;;;;3.00;1.90;;;13.60;99.90;;;;;;5093469;28;20389;-80
2024/03/15 06:40:56;;;;;;;3.40;2.30;;;13.50;99.90;;;;;;5094011;28;20804;-80
2024/03/15 06:43:41;;;;;;;2.65;2.00;;;13.60;99.90;;;;;;5095156;28;20388;-82
2024/03/15 06:46:19;;;;;;;3.10;2.00;;;13.70;99.90;;;;;;5093957;28;20378;-79
2024/03/15 06:48:55;;;;;;;3.38;2.10;;;13.80;99.90;;;;;;5093553;28;20386;-80
2024/03/15 06:54:07;;;;;;;3.80;2.50;;;13.80;99.90;;;;;;5093726;28;20832;-80
2024/03/15 06:56:32;;;;;;;3.70;2.40;;;13.80;99.90;;;;;;5091545;28;20382;-80
2024/03/15 06:58:58;;;;;;;5.07;2.90;;;13.70;99.90;;;;;;5093335;28;20796;-80
2024/03/15 07:01:23;;;;;;;4.10;2.40;;;13.60;99.90;;;;;;5094303;28;20404;-82
2024/03/15 07:03:49;;;;;;;3.97;2.50;;;13.80;99.90;;;;;;5101969;28;20406;-80
2024/03/15 07:06:20;;;;;;;2.55;2.10;;;13.80;99.90;;;;;;5117112;27;20413;-78
2024/03/15 07:08:51;;;;;;;4.85;2.80;;;13.90;99.90;;;;;;5117990;27;20437;-76
2024/03/15 07:11:17;;;;;;;3.95;2.80;;;13.90;99.90;;;;;;5108683;27;20397;-78
2024/03/15 07:13:42;;;;;;;3.17;2.13;;;13.90;99.90;;;;;;5091520;28;20402;-79
2024/03/15 07:16:08;;;;;;;3.35;2.45;;;13.90;99.90;;;;;;5089199;28;20381;-79
2024/03/15 07:18:34;;;;;;;2.60;2.13;;;14.00;99.90;;;;;;5091527;28;20390;-80
2024/03/15 07:20:59;;;;;;;4.90;2.20;;;14.60;99.90;;;;;;5094198;28;20473;-79
2024/03/15 07:23:27;;;;;;;3.50;2.53;;;14.20;99.90;;;;;;5095817;28;20390;-79
2024/03/15 07:25:53;;;;;;;3.95;2.10;;;14.20;99.90;;;;;;5102000;28;20394;-81
2024/03/15 07:28:21;;;;;;;3.78;2.60;;;14.20;99.90;;;;;;5100020;28;20429;-81
2024/03/15 07:30:50;;;;;;;3.58;2.50;;;14.20;99.90;;;;;;5101550;28;20386;-81
2024/03/15 07:33:19;;;;;;;3.50;2.28;;;14.30;99.90;;;;;;5098450;28;20413;-84
2024/03/15 07:35:48;;;;;;;5.22;2.40;;;14.40;99.90;;;;;;5099037;28;20410;-83
2024/03/15 07:38:13;;;;;;;2.58;2.17;;;14.50;99.90;;;;;;5083069;28;20855;-83
2024/03/15 07:40:39;;;;;;;3.00;2.60;;;14.50;99.90;;;;;;5076858;28;20388;-82
2024/03/15 07:43:05;;;;;;;2.70;2.00;;;14.60;99.90;;;;;;5093331;28;20420;-82
2024/03/15 07:45:31;;;;;;;3.20;2.50;;;14.20;99.90;;;;;;5104983;28;20774;-81
2024/03/15 07:47:56;;;;;;;5.43;2.80;;;14.50;99.90;;;;;;5104844;28;20750;-82
2024/03/15 07:50:24;;;;;;;4.28;2.40;;;14.50;99.90;;;;;;5100622;28;20393;-82
2024/03/15 07:52:50;;;;;;;3.28;2.40;;;14.60;99.90;;;;;;5107060;28;20405;-83
2024/03/15 07:55:16;;;;;;;2.67;2.40;;;14.60;99.90;;;;;;5110118;28;20377;-83
2024/03/15 07:57:42;;;;;;;2.80;2.20;;;14.70;99.90;;;;;;5100950;28;20374;-83
2024/03/15 08:00:09;;;;;;;2.83;2.13;;;14.80;99.90;;;;;;5100918;28;20386;-83
2024/03/15 08:02:35;;;;;;;3.73;2.30;;;14.70;99.90;;;;;;5111708;28;20388;-83
2024/03/15 08:05:03;;;;;;;4.00;2.37;;;14.80;99.90;;;;;;5114045;28;20390;-83
2024/03/15 08:07:28;;;;;;;2.90;2.30;;;14.80;99.90;;;;;;5115243;28;20394;-83
2024/03/15 08:09:54;;;;;;;3.47;2.45;;;14.80;99.90;;;;;;5110265;28;20895;-83
2024/03/15 08:12:19;;;;;;;3.40;2.67;;;14.90;99.90;;;;;;5108993;28;20469;-83
2024/03/15 08:14:45;;;;;;;4.37;2.60;;;15.00;99.90;;;;;;5112705;28;20435;-84
2024/03/15 08:17:10;;;;;;;3.00;2.10;;;14.90;99.90;;;;;;5113402;28;20429;-83
2024/03/15 08:19:36;;;;;;;3.27;2.80;;;14.90;99.90;;;;;;5112046;28;20407;-84
2024/03/15 08:22:02;;;;;;;3.70;2.90;;;14.90;99.90;;;;;;5112234;28;20390;-82
2024/03/15 08:24:27;;;;;;;3.25;2.60;;;14.90;99.90;;;;;;5092035;28;20461;-84
2024/03/15 08:26:54;;;;;;;3.17;2.33;;;14.80;99.90;;;;;;5088490;28;20447;-83
2024/03/15 08:29:22;;;;;;;3.42;2.20;;;15.00;99.90;;;;;;5086504;28;20372;-83
2024/03/15 08:31:48;;;;;;;2.90;2.10;;;15.00;99.90;;;;;;5089543;28;20390;-84
2024/03/15 08:34:14;;;;;;;4.70;2.40;;;15.10;99.90;;;;;;5090699;28;20447;-83
2024/03/15 08:36:40;;;;;;;5.00;2.30;;;15.00;99.90;;;;;;5089399;28;20391;-84
2024/03/15 08:39:11;;;;;;;4.32;2.25;;;15.10;99.90;;;;;;5090507;28;20387;-84
2024/03/15 08:41:37;;;;;;;3.17;2.20;;;15.30;99.90;;;;;;5087338;28;20791;-85
2024/03/15 08:44:03;;;;;;;3.90;2.13;;;15.50;99.90;;;;;;5089106;28;20388;-84
2024/03/15 08:46:32;;;;;;;2.88;2.00;;;15.50;99.90;;;;;;5090986;28;20406;-85
2024/03/15 08:48:57;;;;;;;2.53;2.28;;;15.30;99.90;;;;;;5092452;28;20433;-85
2024/03/15 08:51:23;;;;;;;2.40;2.00;;;15.60;99.90;;;;;;5091388;28;20383;-85
2024/03/15 08:53:49;;;;;;;2.05;1.80;;;15.40;99.90;;;;;;5089574;28;20423;-84
2024/03/15 08:56:18;;;;;;;2.40;2.00;;;15.50;99.90;;;;;;5077112;28;20396;-83
2024/03/15 08:58:44;;;;;;;2.50;2.17;;;15.30;99.90;;;;;;5081530;28;20384;-81
2024/03/15 09:01:10;;;;;;;3.70;2.38;;;15.10;99.90;;;;;;5092332;28;20411;-82
2024/03/15 09:03:36;;;;;;;3.80;2.00;;;15.20;99.90;;;;;;5092750;28;20432;-82
2024/03/15 09:06:06;;;;;;;3.20;2.10;;;15.20;99.90;;;;;;5081857;28;20394;-83
2024/03/15 09:08:34;;;;;;;3.70;2.33;;;15.00;99.90;;;;;;5079382;28;20756;-84
2024/03/15 09:11:01;;;;;;;2.92;2.20;;;15.00;99.90;;;;;;5078353;28;20390;-84
2024/03/15 09:13:27;;;;;;;3.00;2.40;;;15.10;99.90;;;;;;5083965;28;20411;-83
2024/03/15 09:15:55;;;;;;;2.30;2.10;;;15.00;99.90;;;;;;5081636;28;20394;-84
2024/03/15 09:18:21;;;;;;;3.65;2.53;;;14.80;99.90;;;;;;5078843;28;20880;-84
2024/03/15 09:20:47;;;;;;;2.30;2.10;;;14.80;99.90;;;;;;5078942;28;20467;-84
2024/03/15 09:23:14;;;;;;;4.80;2.60;;;14.70;99.90;;;;;;5078575;28;20413;-83
2024/03/15 09:25:42;;;;;;;4.30;2.40;;;14.60;99.90;;;;;;5078618;28;20391;-83
2024/03/15 09:28:10;;;;;;;3.00;2.03;;;14.70;99.90;;;;;;5076479;28;20386;-83
2024/03/15 09:30:53;;;;;;;2.72;2.45;;;14.70;99.90;;;;;;5079971;28;20395;-84
2024/03/15 09:33:19;;;;;;;3.20;2.50;;;14.70;99.90;;;;;;5077317;28;20416;-83
2024/03/15 09:35:46;;;;;;;3.30;2.30;;;14.70;99.90;;;;;;5076029;28;20475;-84
2024/03/15 09:38:12;;;;;;;3.90;3.10;;;14.70;99.90;;;;;;5077164;28;20384;-84
2024/03/15 09:40:38;;;;;;;4.53;2.40;;;14.90;99.90;;;;;;5077932;28;20387;-83
2024/03/15 09:43:14;;;;;;;4.30;2.87;;;14.90;99.90;;;;;;5078669;28;20399;-84
2024/03/15 09:45:39;;;;;;;2.53;2.33;;;15.00;99.90;;;;;;5077208;28;20384;-83
2024/03/15 09:48:11;;;;;;;2.83;2.50;;;15.20;99.90;;;;;;5079100;28;20380;-83
2024/03/15 09:50:38;;;;;;;3.30;2.30;;;15.30;99.90;;;;;;5080731;28;20422;-83
2024/03/15 09:53:04;;;;;;;2.70;2.38;;;15.30;99.90;;;;;;5077958;28;20807;-84
2024/03/15 09:55:30;;;;;;;4.22;2.53;;;15.40;99.90;;;;;;5077016;28;20395;-83
2024/03/15 09:57:56;;;;;;;3.63;2.80;;;15.60;99.90;;;;;;5079150;28;20407;-83
2024/03/15 10:00:23;;;;;;;2.70;2.13;;;15.50;99.90;;;;;;5078424;28;20383;-84
2024/03/15 10:02:52;;;;;;;4.10;2.10;;;15.60;99.90;;;;;;5076753;28;20384;-84
2024/03/15 10:05:20;;;;;;;4.97;2.70;;;15.50;99.90;;;;;;5075719;28;20386;-83
2024/03/15 10:07:47;;;;;;;4.27;2.60;;;15.40;99.90;;;;;;5077990;28;20388;-84
2024/03/15 10:10:13;;;;;;;3.10;2.50;;;15.30;99.90;;;;;;5077025;28;20918;-83
2024/03/15 10:12:46;;;;;;;3.10;2.83;;;15.50;99.90;;;;;;5075902;28;20395;-83
2024/03/15 10:15:21;;;;;;;3.75;2.38;;;15.50;99.90;;;;;;5077283;28;20443;-83
2024/03/15 10:17:51;;;;;;;2.70;2.10;;;15.60;99.90;;;;;;5076163;28;20439;-83
2024/03/15 10:20:24;;;;;;;3.60;2.80;;;15.60;99.90;;;;;;5077216;28;20384;-83
2024/03/15 10:22:54;;;;;;;2.70;2.45;;;15.80;99.90;;;;;;5077140;28;20430;-83
2024/03/15 10:25:22;;;;;;;3.75;2.70;;;16.00;99.90;;;;;;5076479;28;20387;-84
2024/03/15 10:27:49;;;;;;;2.47;2.28;;;16.20;99.90;;;;;;5076885;28;20890;-83
2024/03/15 10:30:22;;;;;;;4.47;2.10;;;15.80;99.90;;;;;;5077605;28;20942;-83
2024/03/15 10:32:53;;;;;;;4.10;2.45;;;16.00;99.90;;;;;;5076400;28;20411;-82
2024/03/15 10:35:20;;;;;;;2.95;2.00;;;15.90;99.90;;;;;;5093327;28;20384;-83
2024/03/15 10:37:50;;;;;;;3.97;1.95;;;16.00;99.90;;;;;;5098447;28;20404;-83
2024/03/15 10:40:17;;;;;;;3.50;2.05;;;15.90;99.90;;;;;;5098654;28;20380;-83
2024/03/15 10:42:46;;;;;;;3.55;1.80;;;15.90;99.90;;;;;;5098320;28;20382;-82
2024/03/15 10:45:14;;;;;;;3.15;2.08;;;15.50;99.90;;;;;;5096927;28;20376;-83
2024/03/15 10:47:49;;;;;;;3.50;1.70;;;15.40;99.90;;;;;;5094636;28;20423;-83
2024/03/15 10:50:16;;;;;;;2.58;1.70;;;15.50;99.90;;;;;;5074835;28;20395;-83
2024/03/15 10:52:47;;;;;;;2.70;1.80;;;15.40;99.90;;;;;;5079173;28;20537;-83
2024/03/15 10:55:18;;;;;;;3.40;1.65;;;15.50;99.90;;;;;;5082870;28;20415;-83
2024/03/15 10:57:44;;;;;;;2.38;2.00;;;15.80;99.90;;;;;;5082270;28;20375;-83
2024/03/15 11:00:21;;;;;;;3.30;1.80;;;14.90;99.90;;;;;;5083313;28;20390;-84
2024/03/15 11:02:47;;;;;;;3.08;1.90;;;15.70;99.90;;;;;;5083404;28;20433;-83
2024/03/15 11:05:17;;;;;;;2.47;1.60;;;15.70;99.90;;;;;;5078530;28;20384;-84
2024/03/15 11:07:43;;;;;;;2.35;1.50;;;15.90;99.90;;;;;;5077758;28;20922;-83
2024/03/15 11:10:14;;;;;;;2.50;1.40;;;15.80;99.90;;;;;;5083742;28;20388;-82
2024/03/15 11:12:39;;;;;;;2.90;1.73;;;16.00;99.90;;;;;;5086201;28;20826;-83
2024/03/15 11:15:20;;;;;;;2.40;1.60;;;15.90;99.90;;;;;;5085818;28;20395;-83
2024/03/15 11:17:57;;;;;;;2.80;1.88;;;15.70;99.90;;;;;;5076210;28;22226;-83
2024/03/15 11:20:23;;;;;;;2.65;1.80;;;15.70;99.90;;;;;;5075941;28;20395;-81
2024/03/15 11:22:55;;;;;;;2.30;1.90;;;15.60;99.90;;;;;;5077097;28;20376;-83
2024/03/15 11:25:27;;;;;;;2.70;1.90;;;15.50;99.90;;;;;;5077028;28;20380;-83
2024/03/15 11:27:59;;;;;;;2.50;2.20;;;15.60;99.90;;;;;;5076512;28;20428;-83
2024/03/15 11:30:28;;;;;;;3.08;1.90;;;15.60;99.90;;;;;;5078404;28;20394;-83
2024/03/15 11:32:57;;;;;;;3.10;1.80;;;15.70;99.90;;;;;;5074923;28;20407;-83
2024/03/15 11:35:23;;;;;;;2.30;1.80;;;15.90;99.90;;;;;;5074439;28;20388;-83
2024/03/15 11:37:55;;;;;;;3.13;1.80;;;16.10;99.90;;;;;;5077238;28;20384;-84
2024/03/15 11:40:24;;;;;;;2.20;1.80;;;16.50;99.90;;;;;;5075674;28;20388;-82
2024/03/15 11:42:50;;;;;;;2.95;1.70;;;16.40;99.90;;;;;;5075929;28;20383;-82
2024/03/15 11:45:16;;;;;;;2.88;1.60;;;16.20;99.90;;;;;;5075752;28;20391;-83
2024/03/15 11:47:42;;;;;;;2.40;1.50;;;16.20;99.90;;;;;;5075459;28;20429;-82
2024/03/15 11:50:16;;;;;;;3.20;1.63;;;16.60;99.90;;;;;;5075740;28;20383;-82
2024/03/15 11:52:43;;;;;;;2.53;1.88;;;16.50;99.90;;;;;;5074520;28;20399;-82
2024/03/15 11:55:17;;;;;;;3.20;1.80;;;16.50;99.90;;;;;;5075314;28;20440;-82
2024/03/15 11:57:43;;;;;;;2.83;1.63;;;16.10;99.90;;;;;;5073541;28;20441;-82
2024/03/15 12:00:20;;;;;;;3.17;1.80;;;16.20;99.90;;;;;;5074308;28;20791;-82
2024/03/15 12:02:56;;;;;;;1.77;1.60;;;16.00;99.90;;;;;;5075592;28;20421;-82
2024/03/15 12:05:22;;;;;;;2.70;1.60;;;15.90;99.90;;;;;;5075947;28;20387;-82
2024/03/15 12:07:50;;;;;;;2.33;1.60;;;16.90;99.90;;;;;;5076324;28;20871;-83
2024/03/15 12:10:16;;;;;;;1.63;1.52;;;17.50;99.90;;;;;;5078200;28;20474;-82
2024/03/15 12:12:49;;;;;;;3.28;1.95;;;17.10;99.90;;;;;;5086453;28;20486;-82
2024/03/15 12:15:30;;;;;;;2.05;1.50;;;17.40;99.90;;;;;;5085392;28;20443;-82
2024/03/15 12:17:59;;;;;;;3.88;1.77;;;18.40;99.90;;;;;;5082829;28;20395;-82
2024/03/15 12:20:26;;;;;;;3.50;1.60;;;18.20;99.90;;;;;;5076433;28;20443;-82
2024/03/15 12:22:52;;;;;;;3.10;1.70;;;18.30;99.90;;;;;;5083547;28;20387;-83
2024/03/15 12:25:18;;;;;;;2.10;1.80;;;18.50;99.90;;;;;;5079567;28;20708;-82
2024/03/15 12:27:46;;;;;;;2.37;1.70;;;18.40;99.90;;;;;;5083963;28;20470;-82
2024/03/15 12:30:12;;;;;;;2.85;1.55;;;19.10;99.90;;;;;;5082621;28;20388;-83
2024/03/15 12:32:39;;;;;;;2.20;1.60;;;19.30;99.90;;;;;;5078000;28;20414;-83
2024/03/15 12:35:05;;;;;;;2.03;1.30;;;19.30;99.90;;;;;;5077900;28;20416;-82
2024/03/15 12:37:34;;;;;;;2.70;1.33;;;18.00;99.90;;;;;;5079980;28;20384;-82
2024/03/15 12:39:59;;;;;;;1.75;1.00;;;17.80;99.90;;;;;;5082306;28;20383;-82
2024/03/15 12:42:26;;;;;;;1.63;1.10;;;17.60;99.90;;;;;;5080035;28;20384;-82
2024/03/15 12:44:54;;;;;;;2.40;1.10;;;16.80;99.90;;;;;;5080819;28;20417;-82
2024/03/15 12:47:20;;;;;;;3.00;1.30;;;16.70;99.90;;;;;;5079018;28;20439;-82
2024/03/15 12:49:46;;;;;;;2.50;1.40;;;16.60;99.90;;;;;;5079352;28;20386;-82